sensor_id;sensor_type;location;lat;lon;timestamp;P1;durP1;ratioP1;P2;durP2;ratioP2
50739;SDS011;36704;52.524;17.580;2023-05-07T00:00:23;14.65;;;10.40;;
50739;SDS011;36704;52.524;17.580;2023-05-07T00:03:20;22.90;;;15.48;;
50739;SDS011;36704;52.524;17.580;2023-05-07T00:06:07;55.90;;;26.17;;
50739;SDS011;36704;52.524;17.580;2023-05-07T00:08:54;48.10;;;15.35;;
50739;SDS011;36704;52.524;17.580;2023-05-07T00:11:41;18.52;;;10.23;;
50739;SDS011;36704;52.524;17.580;2023-05-07T00:14:27;15.05;;;9.73;;
50739;SDS011;36704;52.524;17.580;2023-05-07T00:17:13;22.73;;;10.60;;
50739;SDS011;36704;52.524;17.580;2023-05-07T00:20:00;22.60;;;11.13;;
50739;SDS011;36704;52.524;17.580;2023-05-07T00:22:46;20.73;;;11.88;;
50739;SDS011;36704;52.524;17.580;2023-05-07T00:25:32;31.95;;;15.23;;
50739;SDS011;36704;52.524;17.580;2023-05-07T00:28:18;21.65;;;12.93;;
50739;SDS011;36704;52.524;17.580;2023-05-07T00:31:05;36.35;;;18.52;;
50739;SDS011;36704;52.524;17.580;2023-05-07T00:33:51;50.05;;;32.13;;
50739;SDS011;36704;52.524;17.580;2023-05-07T00:36:37;161.05;;;67.57;;
50739;SDS011;36704;52.524;17.580;2023-05-07T00:39:23;51.92;;;18.75;;
50739;SDS011;36704;52.524;17.580;2023-05-07T00:42:09;85.00;;;24.33;;
50739;SDS011;36704;52.524;17.580;2023-05-07T00:44:56;39.47;;;16.52;;
50739;SDS011;36704;52.524;17.580;2023-05-07T00:47:42;26.48;;;13.68;;
50739;SDS011;36704;52.524;17.580;2023-05-07T00:50:28;29.08;;;14.48;;
50739;SDS011;36704;52.524;17.580;2023-05-07T00:53:15;25.45;;;13.40;;
50739;SDS011;36704;52.524;17.580;2023-05-07T00:56:01;14.00;;;10.10;;
50739;SDS011;36704;52.524;17.580;2023-05-07T00:58:48;23.58;;;12.75;;
50739;SDS011;36704;52.524;17.580;2023-05-07T01:01:34;19.42;;;12.10;;
50739;SDS011;36704;52.524;17.580;2023-05-07T01:04:21;19.40;;;12.38;;
50739;SDS011;36704;52.524;17.580;2023-05-07T01:07:07;24.10;;;15.65;;
50739;SDS011;36704;52.524;17.580;2023-05-07T01:09:54;67.22;;;35.58;;
50739;SDS011;36704;52.524;17.580;2023-05-07T01:12:40;73.13;;;21.23;;
50739;SDS011;36704;52.524;17.580;2023-05-07T01:15:27;38.53;;;17.48;;
50739;SDS011;36704;52.524;17.580;2023-05-07T01:18:14;21.08;;;12.80;;
50739;SDS011;36704;52.524;17.580;2023-05-07T01:21:01;23.50;;;13.95;;
50739;SDS011;36704;52.524;17.580;2023-05-07T01:23:47;21.13;;;13.63;;
50739;SDS011;36704;52.524;17.580;2023-05-07T01:26:35;21.38;;;13.25;;
50739;SDS011;36704;52.524;17.580;2023-05-07T01:29:21;19.85;;;13.40;;
50739;SDS011;36704;52.524;17.580;2023-05-07T01:32:07;22.92;;;14.07;;
50739;SDS011;36704;52.524;17.580;2023-05-07T01:34:54;96.47;;;48.10;;
50739;SDS011;36704;52.524;17.580;2023-05-07T01:37:41;36.15;;;17.10;;
50739;SDS011;36704;52.524;17.580;2023-05-07T01:40:27;37.75;;;16.75;;
50739;SDS011;36704;52.524;17.580;2023-05-07T01:43:14;70.53;;;24.48;;
50739;SDS011;36704;52.524;17.580;2023-05-07T01:46:01;42.70;;;17.83;;
50739;SDS011;36704;52.524;17.580;2023-05-07T01:48:48;26.52;;;14.48;;
50739;SDS011;36704;52.524;17.580;2023-05-07T01:51:35;30.77;;;16.30;;
50739;SDS011;36704;52.524;17.580;2023-05-07T01:54:28;53.65;;;24.20;;
50739;SDS011;36704;52.524;17.580;2023-05-07T01:57:15;85.30;;;35.33;;
50739;SDS011;36704;52.524;17.580;2023-05-07T02:00:02;62.38;;;21.23;;
50739;SDS011;36704;52.524;17.580;2023-05-07T02:02:59;38.30;;;16.20;;
50739;SDS011;36704;52.524;17.580;2023-05-07T02:06:08;20.20;;;12.60;;
50739;SDS011;36704;52.524;17.580;2023-05-07T02:08:57;19.77;;;12.65;;
50739;SDS011;36704;52.524;17.580;2023-05-07T02:11:43;22.85;;;13.35;;
50739;SDS011;36704;52.524;17.580;2023-05-07T02:14:30;20.17;;;11.82;;
50739;SDS011;36704;52.524;17.580;2023-05-07T02:17:16;19.60;;;11.15;;
50739;SDS011;36704;52.524;17.580;2023-05-07T02:20:02;18.92;;;11.55;;
50739;SDS011;36704;52.524;17.580;2023-05-07T02:22:49;15.88;;;11.10;;
50739;SDS011;36704;52.524;17.580;2023-05-07T02:25:35;41.88;;;19.52;;
50739;SDS011;36704;52.524;17.580;2023-05-07T02:28:22;19.55;;;11.35;;
50739;SDS011;36704;52.524;17.580;2023-05-07T02:31:19;20.85;;;11.40;;
50739;SDS011;36704;52.524;17.580;2023-05-07T02:34:06;18.40;;;11.25;;
50739;SDS011;36704;52.524;17.580;2023-05-07T02:36:52;18.75;;;10.93;;
50739;SDS011;36704;52.524;17.580;2023-05-07T02:39:41;18.23;;;11.32;;
50739;SDS011;36704;52.524;17.580;2023-05-07T02:42:27;16.42;;;10.50;;
50739;SDS011;36704;52.524;17.580;2023-05-07T02:45:14;15.57;;;10.25;;
50739;SDS011;36704;52.524;17.580;2023-05-07T02:48:01;14.35;;;9.07;;
50739;SDS011;36704;52.524;17.580;2023-05-07T02:50:48;16.65;;;10.10;;
50739;SDS011;36704;52.524;17.580;2023-05-07T02:53:34;16.52;;;11.20;;
50739;SDS011;36704;52.524;17.580;2023-05-07T02:56:20;16.45;;;12.05;;
50739;SDS011;36704;52.524;17.580;2023-05-07T02:59:07;36.65;;;20.67;;
50739;SDS011;36704;52.524;17.580;2023-05-07T03:04:44;18.63;;;12.57;;
50739;SDS011;36704;52.524;17.580;2023-05-07T03:07:30;29.38;;;14.40;;
50739;SDS011;36704;52.524;17.580;2023-05-07T03:10:16;22.00;;;14.07;;
50739;SDS011;36704;52.524;17.580;2023-05-07T03:13:04;22.52;;;13.75;;
50739;SDS011;36704;52.524;17.580;2023-05-07T03:15:50;20.48;;;14.65;;
50739;SDS011;36704;52.524;17.580;2023-05-07T03:18:37;23.73;;;16.65;;
50739;SDS011;36704;52.524;17.580;2023-05-07T03:21:23;24.25;;;16.02;;
50739;SDS011;36704;52.524;17.580;2023-05-07T03:24:09;25.25;;;16.83;;
50739;SDS011;36704;52.524;17.580;2023-05-07T03:26:55;30.30;;;16.90;;
50739;SDS011;36704;52.524;17.580;2023-05-07T03:29:42;28.48;;;18.42;;
50739;SDS011;36704;52.524;17.580;2023-05-07T03:32:27;31.70;;;24.15;;
50739;SDS011;36704;52.524;17.580;2023-05-07T03:35:14;71.00;;;41.92;;
50739;SDS011;36704;52.524;17.580;2023-05-07T03:38:00;64.05;;;24.05;;
50739;SDS011;36704;52.524;17.580;2023-05-07T03:40:51;36.42;;;19.08;;
50739;SDS011;36704;52.524;17.580;2023-05-07T03:43:37;25.70;;;16.30;;
50739;SDS011;36704;52.524;17.580;2023-05-07T03:46:27;21.77;;;15.02;;
50739;SDS011;36704;52.524;17.580;2023-05-07T03:49:14;21.98;;;14.90;;
50739;SDS011;36704;52.524;17.580;2023-05-07T03:52:00;23.20;;;16.15;;
50739;SDS011;36704;52.524;17.580;2023-05-07T03:54:47;23.67;;;16.08;;
50739;SDS011;36704;52.524;17.580;2023-05-07T03:57:34;20.60;;;15.70;;
50739;SDS011;36704;52.524;17.580;2023-05-07T04:00:21;25.15;;;15.88;;
50739;SDS011;36704;52.524;17.580;2023-05-07T04:03:08;27.50;;;18.10;;
50739;SDS011;36704;52.524;17.580;2023-05-07T04:05:54;25.13;;;16.83;;
50739;SDS011;36704;52.524;17.580;2023-05-07T04:08:41;24.25;;;16.10;;
50739;SDS011;36704;52.524;17.580;2023-05-07T04:11:27;21.95;;;16.23;;
50739;SDS011;36704;52.524;17.580;2023-05-07T04:14:14;22.83;;;16.00;;
50739;SDS011;36704;52.524;17.580;2023-05-07T04:16:59;21.75;;;16.38;;
50739;SDS011;36704;52.524;17.580;2023-05-07T04:19:47;18.83;;;13.77;;
50739;SDS011;36704;52.524;17.580;2023-05-07T04:22:34;23.52;;;13.50;;
50739;SDS011;36704;52.524;17.580;2023-05-07T04:25:22;18.15;;;12.98;;
50739;SDS011;36704;52.524;17.580;2023-05-07T04:28:17;15.45;;;11.25;;
50739;SDS011;36704;52.524;17.580;2023-05-07T04:31:04;14.73;;;10.18;;
50739;SDS011;36704;52.524;17.580;2023-05-07T04:33:53;18.10;;;9.23;;
50739;SDS011;36704;52.524;17.580;2023-05-07T04:36:40;10.32;;;7.00;;
50739;SDS011;36704;52.524;17.580;2023-05-07T04:39:30;10.10;;;7.05;;
50739;SDS011;36704;52.524;17.580;2023-05-07T04:42:16;11.38;;;6.18;;
50739;SDS011;36704;52.524;17.580;2023-05-07T04:45:03;10.50;;;6.25;;
50739;SDS011;36704;52.524;17.580;2023-05-07T04:47:53;11.68;;;6.07;;
50739;SDS011;36704;52.524;17.580;2023-05-07T04:50:39;7.35;;;5.55;;
50739;SDS011;36704;52.524;17.580;2023-05-07T04:53:26;10.55;;;5.82;;
50739;SDS011;36704;52.524;17.580;2023-05-07T04:56:14;8.93;;;5.57;;
50739;SDS011;36704;52.524;17.580;2023-05-07T04:59:02;9.00;;;6.22;;
50739;SDS011;36704;52.524;17.580;2023-05-07T05:01:49;9.88;;;5.93;;
50739;SDS011;36704;52.524;17.580;2023-05-07T05:04:36;11.30;;;6.00;;
50739;SDS011;36704;52.524;17.580;2023-05-07T05:07:23;9.55;;;5.60;;
50739;SDS011;36704;52.524;17.580;2023-05-07T05:10:10;9.45;;;5.47;;
50739;SDS011;36704;52.524;17.580;2023-05-07T05:12:58;10.75;;;5.30;;
50739;SDS011;36704;52.524;17.580;2023-05-07T05:15:46;10.98;;;5.82;;
50739;SDS011;36704;52.524;17.580;2023-05-07T05:18:32;7.40;;;5.00;;
50739;SDS011;36704;52.524;17.580;2023-05-07T05:21:19;7.90;;;4.97;;
50739;SDS011;36704;52.524;17.580;2023-05-07T05:24:08;12.23;;;6.10;;
50739;SDS011;36704;52.524;17.580;2023-05-07T05:26:55;9.75;;;5.38;;
50739;SDS011;36704;52.524;17.580;2023-05-07T05:29:43;7.93;;;5.13;;
50739;SDS011;36704;52.524;17.580;2023-05-07T05:32:29;6.47;;;4.82;;
50739;SDS011;36704;52.524;17.580;2023-05-07T05:35:16;13.77;;;9.07;;
50739;SDS011;36704;52.524;17.580;2023-05-07T05:38:02;9.23;;;6.18;;
50739;SDS011;36704;52.524;17.580;2023-05-07T05:40:50;7.82;;;5.40;;
50739;SDS011;36704;52.524;17.580;2023-05-07T05:43:38;11.23;;;6.47;;
50739;SDS011;36704;52.524;17.580;2023-05-07T05:46:25;10.43;;;6.22;;
50739;SDS011;36704;52.524;17.580;2023-05-07T05:49:11;11.25;;;6.60;;
50739;SDS011;36704;52.524;17.580;2023-05-07T05:51:59;23.38;;;14.52;;
50739;SDS011;36704;52.524;17.580;2023-05-07T05:54:46;9.55;;;5.53;;
50739;SDS011;36704;52.524;17.580;2023-05-07T05:57:32;11.15;;;6.20;;
50739;SDS011;36704;52.524;17.580;2023-05-07T06:00:19;7.40;;;4.00;;
50739;SDS011;36704;52.524;17.580;2023-05-07T06:03:16;11.73;;;6.07;;
50739;SDS011;36704;52.524;17.580;2023-05-07T06:06:04;7.30;;;4.40;;
50739;SDS011;36704;52.524;17.580;2023-05-07T06:08:51;7.15;;;4.88;;
50739;SDS011;36704;52.524;17.580;2023-05-07T06:11:43;8.88;;;5.45;;
50739;SDS011;36704;52.524;17.580;2023-05-07T06:14:31;7.43;;;5.18;;
50739;SDS011;36704;52.524;17.580;2023-05-07T06:17:19;4.18;;;3.20;;
50739;SDS011;36704;52.524;17.580;2023-05-07T06:20:09;4.72;;;3.00;;
50739;SDS011;36704;52.524;17.580;2023-05-07T06:22:58;6.38;;;3.78;;
50739;SDS011;36704;52.524;17.580;2023-05-07T06:25:51;4.10;;;3.38;;
50739;SDS011;36704;52.524;17.580;2023-05-07T06:28:42;13.48;;;5.45;;
50739;SDS011;36704;52.524;17.580;2023-05-07T06:31:31;5.07;;;3.10;;
50739;SDS011;36704;52.524;17.580;2023-05-07T06:34:24;9.90;;;4.03;;
50739;SDS011;36704;52.524;17.580;2023-05-07T06:37:10;3.50;;;2.60;;
50739;SDS011;36704;52.524;17.580;2023-05-07T06:40:19;19.25;;;9.40;;
50739;SDS011;36704;52.524;17.580;2023-05-07T06:43:06;4.20;;;2.92;;
50739;SDS011;36704;52.524;17.580;2023-05-07T06:46:00;10.70;;;4.72;;
50739;SDS011;36704;52.524;17.580;2023-05-07T06:48:47;4.60;;;2.97;;
50739;SDS011;36704;52.524;17.580;2023-05-07T06:51:34;6.13;;;3.50;;
50739;SDS011;36704;52.524;17.580;2023-05-07T06:54:21;4.25;;;2.35;;
50739;SDS011;36704;52.524;17.580;2023-05-07T06:57:10;6.38;;;2.85;;
50739;SDS011;36704;52.524;17.580;2023-05-07T06:59:56;3.20;;;2.20;;
50739;SDS011;36704;52.524;17.580;2023-05-07T07:02:42;12.98;;;5.88;;
50739;SDS011;36704;52.524;17.580;2023-05-07T07:05:31;8.63;;;4.43;;
50739;SDS011;36704;52.524;17.580;2023-05-07T07:08:21;3.60;;;2.60;;
50739;SDS011;36704;52.524;17.580;2023-05-07T07:11:09;3.65;;;2.35;;
50739;SDS011;36704;52.524;17.580;2023-05-07T07:13:56;4.82;;;2.80;;
50739;SDS011;36704;52.524;17.580;2023-05-07T07:16:42;8.93;;;3.50;;
50739;SDS011;36704;52.524;17.580;2023-05-07T07:19:28;3.97;;;2.22;;
50739;SDS011;36704;52.524;17.580;2023-05-07T07:22:16;9.35;;;3.50;;
50739;SDS011;36704;52.524;17.580;2023-05-07T07:25:03;4.35;;;2.33;;
50739;SDS011;36704;52.524;17.580;2023-05-07T07:27:50;5.75;;;3.20;;
50739;SDS011;36704;52.524;17.580;2023-05-07T07:30:37;16.55;;;8.52;;
50739;SDS011;36704;52.524;17.580;2023-05-07T07:33:23;4.38;;;3.22;;
50739;SDS011;36704;52.524;17.580;2023-05-07T07:36:10;9.00;;;5.55;;
50739;SDS011;36704;52.524;17.580;2023-05-07T07:38:57;14.40;;;4.63;;
50739;SDS011;36704;52.524;17.580;2023-05-07T07:41:43;6.53;;;3.30;;
50739;SDS011;36704;52.524;17.580;2023-05-07T07:44:30;6.60;;;2.58;;
50739;SDS011;36704;52.524;17.580;2023-05-07T07:47:22;4.22;;;2.70;;
50739;SDS011;36704;52.524;17.580;2023-05-07T07:50:10;4.10;;;2.70;;
50739;SDS011;36704;52.524;17.580;2023-05-07T07:53:04;6.20;;;2.95;;
50739;SDS011;36704;52.524;17.580;2023-05-07T07:55:50;5.90;;;2.60;;
50739;SDS011;36704;52.524;17.580;2023-05-07T07:58:41;6.03;;;2.97;;
50739;SDS011;36704;52.524;17.580;2023-05-07T08:01:29;3.42;;;2.28;;
50739;SDS011;36704;52.524;17.580;2023-05-07T08:04:17;5.75;;;2.00;;
50739;SDS011;36704;52.524;17.580;2023-05-07T08:07:03;3.60;;;2.47;;
50739;SDS011;36704;52.524;17.580;2023-05-07T08:09:54;3.03;;;2.60;;
50739;SDS011;36704;52.524;17.580;2023-05-07T08:12:42;4.40;;;3.25;;
50739;SDS011;36704;52.524;17.580;2023-05-07T08:15:28;4.22;;;2.42;;
50739;SDS011;36704;52.524;17.580;2023-05-07T08:18:14;6.00;;;2.97;;
50739;SDS011;36704;52.524;17.580;2023-05-07T08:21:03;5.60;;;3.38;;
50739;SDS011;36704;52.524;17.580;2023-05-07T08:23:49;5.22;;;3.10;;
50739;SDS011;36704;52.524;17.580;2023-05-07T08:26:36;7.00;;;5.07;;
50739;SDS011;36704;52.524;17.580;2023-05-07T08:29:26;3.90;;;2.60;;
50739;SDS011;36704;52.524;17.580;2023-05-07T08:32:12;3.83;;;2.30;;
50739;SDS011;36704;52.524;17.580;2023-05-07T08:34:59;3.72;;;2.25;;
50739;SDS011;36704;52.524;17.580;2023-05-07T08:37:46;3.97;;;2.63;;
50739;SDS011;36704;52.524;17.580;2023-05-07T08:40:36;5.72;;;2.63;;
50739;SDS011;36704;52.524;17.580;2023-05-07T08:43:27;13.13;;;10.77;;
50739;SDS011;36704;52.524;17.580;2023-05-07T08:46:21;8.02;;;3.30;;
50739;SDS011;36704;52.524;17.580;2023-05-07T08:49:12;5.65;;;3.33;;
50739;SDS011;36704;52.524;17.580;2023-05-07T08:51:59;5.72;;;3.30;;
50739;SDS011;36704;52.524;17.580;2023-05-07T08:54:46;5.97;;;3.75;;
50739;SDS011;36704;52.524;17.580;2023-05-07T08:57:34;7.00;;;4.45;;
50739;SDS011;36704;52.524;17.580;2023-05-07T09:00:22;6.38;;;3.42;;
50739;SDS011;36704;52.524;17.580;2023-05-07T09:03:10;7.07;;;3.97;;
50739;SDS011;36704;52.524;17.580;2023-05-07T09:06:04;9.00;;;4.35;;
50739;SDS011;36704;52.524;17.580;2023-05-07T09:08:52;4.72;;;3.60;;
50739;SDS011;36704;52.524;17.580;2023-05-07T09:14:29;4.80;;;3.20;;
50739;SDS011;36704;52.524;17.580;2023-05-07T09:17:20;71.38;;;27.75;;
50739;SDS011;36704;52.524;17.580;2023-05-07T09:20:07;6.70;;;3.30;;
50739;SDS011;36704;52.524;17.580;2023-05-07T09:22:58;4.95;;;3.25;;
50739;SDS011;36704;52.524;17.580;2023-05-07T09:25:45;6.50;;;3.30;;
50739;SDS011;36704;52.524;17.580;2023-05-07T09:28:42;7.20;;;3.60;;
50739;SDS011;36704;52.524;17.580;2023-05-07T09:31:30;4.38;;;3.13;;
50739;SDS011;36704;52.524;17.580;2023-05-07T09:34:17;9.30;;;4.45;;
50739;SDS011;36704;52.524;17.580;2023-05-07T09:37:05;7.97;;;4.30;;
50739;SDS011;36704;52.524;17.580;2023-05-07T09:39:52;7.82;;;3.63;;
50739;SDS011;36704;52.524;17.580;2023-05-07T09:42:41;7.13;;;3.60;;
50739;SDS011;36704;52.524;17.580;2023-05-07T09:45:28;6.68;;;3.90;;
50739;SDS011;36704;52.524;17.580;2023-05-07T09:48:15;5.38;;;3.58;;
50739;SDS011;36704;52.524;17.580;2023-05-07T09:51:03;7.47;;;4.07;;
50739;SDS011;36704;52.524;17.580;2023-05-07T09:53:56;129.10;;;45.85;;
50739;SDS011;36704;52.524;17.580;2023-05-07T09:56:48;9.70;;;3.80;;
50739;SDS011;36704;52.524;17.580;2023-05-07T09:59:37;6.78;;;2.88;;
50739;SDS011;36704;52.524;17.580;2023-05-07T10:02:28;3.80;;;2.42;;
50739;SDS011;36704;52.524;17.580;2023-05-07T10:05:16;3.75;;;2.33;;
50739;SDS011;36704;52.524;17.580;2023-05-07T10:08:03;3.55;;;2.15;;
50739;SDS011;36704;52.524;17.580;2023-05-07T10:10:52;5.13;;;2.10;;
50739;SDS011;36704;52.524;17.580;2023-05-07T10:13:42;3.75;;;2.80;;
50739;SDS011;36704;52.524;17.580;2023-05-07T10:16:31;7.55;;;3.25;;
50739;SDS011;36704;52.524;17.580;2023-05-07T10:19:18;2.75;;;2.08;;
50739;SDS011;36704;52.524;17.580;2023-05-07T10:22:09;6.80;;;3.00;;
50739;SDS011;36704;52.524;17.580;2023-05-07T10:25:01;1.77;;;1.45;;
50739;SDS011;36704;52.524;17.580;2023-05-07T10:27:48;4.60;;;2.15;;
50739;SDS011;36704;52.524;17.580;2023-05-07T10:30:49;5.78;;;3.05;;
50739;SDS011;36704;52.524;17.580;2023-05-07T10:34:02;7.60;;;3.28;;
50739;SDS011;36704;52.524;17.580;2023-05-07T10:36:54;6.78;;;2.95;;
50739;SDS011;36704;52.524;17.580;2023-05-07T10:39:42;3.83;;;2.50;;
50739;SDS011;36704;52.524;17.580;2023-05-07T10:42:30;5.60;;;2.30;;
50739;SDS011;36704;52.524;17.580;2023-05-07T10:45:16;5.38;;;4.18;;
50739;SDS011;36704;52.524;17.580;2023-05-07T10:48:07;2.80;;;1.85;;
50739;SDS011;36704;52.524;17.580;2023-05-07T10:51:18;2.97;;;1.67;;
50739;SDS011;36704;52.524;17.580;2023-05-07T10:57:48;2.38;;;1.50;;
50739;SDS011;36704;52.524;17.580;2023-05-07T11:03:20;6.30;;;3.30;;
50739;SDS011;36704;52.524;17.580;2023-05-07T11:06:14;11.73;;;4.35;;
50739;SDS011;36704;52.524;17.580;2023-05-07T11:09:12;2.60;;;1.98;;
50739;SDS011;36704;52.524;17.580;2023-05-07T11:12:12;7.70;;;3.55;;
50739;SDS011;36704;52.524;17.580;2023-05-07T11:15:06;10.52;;;4.93;;
50739;SDS011;36704;52.524;17.580;2023-05-07T11:17:58;8.48;;;4.15;;
50739;SDS011;36704;52.524;17.580;2023-05-07T11:24:01;4.93;;;2.80;;
50739;SDS011;36704;52.524;17.580;2023-05-07T11:27:08;7.20;;;3.70;;
50739;SDS011;36704;52.524;17.580;2023-05-07T11:29:55;5.80;;;2.65;;
50739;SDS011;36704;52.524;17.580;2023-05-07T11:32:41;11.40;;;5.80;;
50739;SDS011;36704;52.524;17.580;2023-05-07T11:35:28;5.53;;;2.67;;
50739;SDS011;36704;52.524;17.580;2023-05-07T11:38:14;5.13;;;3.33;;
50739;SDS011;36704;52.524;17.580;2023-05-07T11:41:02;6.05;;;3.47;;
50739;SDS011;36704;52.524;17.580;2023-05-07T11:43:54;5.45;;;3.50;;
50739;SDS011;36704;52.524;17.580;2023-05-07T11:46:42;5.28;;;3.25;;
50739;SDS011;36704;52.524;17.580;2023-05-07T11:49:29;5.18;;;3.00;;
50739;SDS011;36704;52.524;17.580;2023-05-07T11:52:17;7.72;;;4.60;;
50739;SDS011;36704;52.524;17.580;2023-05-07T11:55:04;6.70;;;3.05;;
50739;SDS011;36704;52.524;17.580;2023-05-07T11:57:50;5.55;;;3.00;;
50739;SDS011;36704;52.524;17.580;2023-05-07T12:00:36;3.08;;;2.75;;
50739;SDS011;36704;52.524;17.580;2023-05-07T12:03:23;6.45;;;2.72;;
50739;SDS011;36704;52.524;17.580;2023-05-07T12:06:09;12.50;;;3.75;;
50739;SDS011;36704;52.524;17.580;2023-05-07T12:08:59;6.32;;;3.28;;
50739;SDS011;36704;52.524;17.580;2023-05-07T12:11:48;4.28;;;3.00;;
50739;SDS011;36704;52.524;17.580;2023-05-07T12:14:42;4.43;;;3.20;;
50739;SDS011;36704;52.524;17.580;2023-05-07T12:17:32;5.82;;;3.13;;
50739;SDS011;36704;52.524;17.580;2023-05-07T12:20:19;5.35;;;3.20;;
50739;SDS011;36704;52.524;17.580;2023-05-07T12:23:06;3.85;;;2.97;;
50739;SDS011;36704;52.524;17.580;2023-05-07T12:25:53;5.60;;;2.65;;
50739;SDS011;36704;52.524;17.580;2023-05-07T12:28:40;2.92;;;2.40;;
50739;SDS011;36704;52.524;17.580;2023-05-07T12:31:27;4.28;;;2.70;;
50739;SDS011;36704;52.524;17.580;2023-05-07T12:34:14;6.57;;;2.92;;
50739;SDS011;36704;52.524;17.580;2023-05-07T12:37:03;3.55;;;2.45;;
50739;SDS011;36704;52.524;17.580;2023-05-07T12:40:03;4.03;;;2.83;;
50739;SDS011;36704;52.524;17.580;2023-05-07T12:42:54;4.25;;;2.75;;
50739;SDS011;36704;52.524;17.580;2023-05-07T12:45:43;4.22;;;2.53;;
50739;SDS011;36704;52.524;17.580;2023-05-07T12:48:31;4.88;;;3.05;;
50739;SDS011;36704;52.524;17.580;2023-05-07T12:51:18;5.65;;;2.60;;
50739;SDS011;36704;52.524;17.580;2023-05-07T12:54:05;5.18;;;3.33;;
50739;SDS011;36704;52.524;17.580;2023-05-07T12:56:59;3.28;;;2.30;;
50739;SDS011;36704;52.524;17.580;2023-05-07T12:59:57;4.80;;;2.72;;
50739;SDS011;36704;52.524;17.580;2023-05-07T13:02:44;4.85;;;3.13;;
50739;SDS011;36704;52.524;17.580;2023-05-07T13:05:32;8.05;;;3.90;;
50739;SDS011;36704;52.524;17.580;2023-05-07T13:08:29;4.85;;;3.20;;
50739;SDS011;36704;52.524;17.580;2023-05-07T13:11:20;3.47;;;2.80;;
50739;SDS011;36704;52.524;17.580;2023-05-07T13:14:07;4.57;;;2.40;;
50739;SDS011;36704;52.524;17.580;2023-05-07T13:16:54;5.72;;;2.55;;
50739;SDS011;36704;52.524;17.580;2023-05-07T13:19:42;3.20;;;2.33;;
50739;SDS011;36704;52.524;17.580;2023-05-07T13:22:29;4.55;;;3.28;;
50739;SDS011;36704;52.524;17.580;2023-05-07T13:25:15;4.28;;;2.55;;
50739;SDS011;36704;52.524;17.580;2023-05-07T13:28:02;5.65;;;2.88;;
50739;SDS011;36704;52.524;17.580;2023-05-07T13:30:56;3.83;;;2.45;;
50739;SDS011;36704;52.524;17.580;2023-05-07T13:33:43;3.33;;;2.53;;
50739;SDS011;36704;52.524;17.580;2023-05-07T13:36:29;4.18;;;2.72;;
50739;SDS011;36704;52.524;17.580;2023-05-07T13:39:19;8.23;;;2.90;;
50739;SDS011;36704;52.524;17.580;2023-05-07T13:42:06;3.63;;;2.50;;
50739;SDS011;36704;52.524;17.580;2023-05-07T13:44:53;4.93;;;2.72;;
50739;SDS011;36704;52.524;17.580;2023-05-07T13:47:42;4.57;;;2.40;;
50739;SDS011;36704;52.524;17.580;2023-05-07T13:50:29;6.63;;;2.80;;
50739;SDS011;36704;52.524;17.580;2023-05-07T13:53:17;4.53;;;2.40;;
50739;SDS011;36704;52.524;17.580;2023-05-07T13:56:05;3.78;;;2.58;;
50739;SDS011;36704;52.524;17.580;2023-05-07T13:58:52;4.68;;;2.80;;
50739;SDS011;36704;52.524;17.580;2023-05-07T14:01:46;4.95;;;2.70;;
50739;SDS011;36704;52.524;17.580;2023-05-07T14:04:33;15.30;;;10.77;;
50739;SDS011;36704;52.524;17.580;2023-05-07T14:07:19;4.13;;;3.22;;
50739;SDS011;36704;52.524;17.580;2023-05-07T14:10:06;4.55;;;3.20;;
50739;SDS011;36704;52.524;17.580;2023-05-07T14:12:53;4.57;;;3.05;;
50739;SDS011;36704;52.524;17.580;2023-05-07T14:15:40;8.10;;;3.55;;
50739;SDS011;36704;52.524;17.580;2023-05-07T14:18:28;6.47;;;2.78;;
50739;SDS011;36704;52.524;17.580;2023-05-07T14:21:16;4.60;;;2.80;;
50739;SDS011;36704;52.524;17.580;2023-05-07T14:24:03;10.63;;;3.53;;
50739;SDS011;36704;52.524;17.580;2023-05-07T14:26:50;7.10;;;3.00;;
50739;SDS011;36704;52.524;17.580;2023-05-07T14:29:36;3.78;;;2.47;;
50739;SDS011;36704;52.524;17.580;2023-05-07T14:32:22;2.50;;;2.22;;
50739;SDS011;36704;52.524;17.580;2023-05-07T14:35:09;4.35;;;2.33;;
50739;SDS011;36704;52.524;17.580;2023-05-07T14:37:56;3.92;;;2.28;;
50739;SDS011;36704;52.524;17.580;2023-05-07T14:40:44;3.17;;;2.42;;
50739;SDS011;36704;52.524;17.580;2023-05-07T14:43:31;4.35;;;2.75;;
50739;SDS011;36704;52.524;17.580;2023-05-07T14:46:18;5.30;;;2.92;;
50739;SDS011;36704;52.524;17.580;2023-05-07T14:49:06;5.70;;;2.70;;
50739;SDS011;36704;52.524;17.580;2023-05-07T14:52:02;3.40;;;2.38;;
50739;SDS011;36704;52.524;17.580;2023-05-07T14:54:50;3.33;;;2.70;;
50739;SDS011;36704;52.524;17.580;2023-05-07T14:57:40;3.47;;;2.55;;
50739;SDS011;36704;52.524;17.580;2023-05-07T15:00:27;4.00;;;2.92;;
50739;SDS011;36704;52.524;17.580;2023-05-07T15:03:16;3.75;;;2.40;;
50739;SDS011;36704;52.524;17.580;2023-05-07T15:06:03;5.70;;;2.78;;
50739;SDS011;36704;52.524;17.580;2023-05-07T15:08:50;4.25;;;2.30;;
50739;SDS011;36704;52.524;17.580;2023-05-07T15:11:36;4.60;;;2.60;;
50739;SDS011;36704;52.524;17.580;2023-05-07T15:14:23;5.75;;;2.50;;
50739;SDS011;36704;52.524;17.580;2023-05-07T15:17:09;3.72;;;2.50;;
50739;SDS011;36704;52.524;17.580;2023-05-07T15:19:55;5.88;;;2.47;;
50739;SDS011;36704;52.524;17.580;2023-05-07T15:22:42;4.78;;;3.17;;
50739;SDS011;36704;52.524;17.580;2023-05-07T15:25:28;5.57;;;2.60;;
50739;SDS011;36704;52.524;17.580;2023-05-07T15:28:17;6.95;;;5.57;;
50739;SDS011;36704;52.524;17.580;2023-05-07T15:31:03;4.47;;;3.40;;
50739;SDS011;36704;52.524;17.580;2023-05-07T15:33:51;4.53;;;2.63;;
50739;SDS011;36704;52.524;17.580;2023-05-07T15:36:38;3.95;;;2.40;;
50739;SDS011;36704;52.524;17.580;2023-05-07T15:39:24;2.75;;;2.15;;
50739;SDS011;36704;52.524;17.580;2023-05-07T15:42:11;2.85;;;2.28;;
50739;SDS011;36704;52.524;17.580;2023-05-07T15:44:57;3.80;;;2.00;;
50739;SDS011;36704;52.524;17.580;2023-05-07T15:47:47;10.40;;;2.95;;
50739;SDS011;36704;52.524;17.580;2023-05-07T15:50:33;6.32;;;4.55;;
50739;SDS011;36704;52.524;17.580;2023-05-07T15:53:21;3.45;;;2.70;;
50739;SDS011;36704;52.524;17.580;2023-05-07T15:56:07;29.38;;;12.90;;
50739;SDS011;36704;52.524;17.580;2023-05-07T15:58:54;14.98;;;7.20;;
50739;SDS011;36704;52.524;17.580;2023-05-07T16:01:40;10.88;;;5.10;;
50739;SDS011;36704;52.524;17.580;2023-05-07T16:04:28;4.93;;;2.53;;
50739;SDS011;36704;52.524;17.580;2023-05-07T16:07:14;2.90;;;1.90;;
50739;SDS011;36704;52.524;17.580;2023-05-07T16:10:01;2.65;;;2.30;;
50739;SDS011;36704;52.524;17.580;2023-05-07T16:12:50;4.80;;;2.40;;
50739;SDS011;36704;52.524;17.580;2023-05-07T16:15:37;3.53;;;2.08;;
50739;SDS011;36704;52.524;17.580;2023-05-07T16:18:24;3.33;;;2.47;;
50739;SDS011;36704;52.524;17.580;2023-05-07T16:21:11;5.75;;;3.30;;
50739;SDS011;36704;52.524;17.580;2023-05-07T16:23:57;4.97;;;2.35;;
50739;SDS011;36704;52.524;17.580;2023-05-07T16:26:44;5.43;;;2.72;;
50739;SDS011;36704;52.524;17.580;2023-05-07T16:29:30;5.75;;;2.45;;
50739;SDS011;36704;52.524;17.580;2023-05-07T16:32:16;6.20;;;3.03;;
50739;SDS011;36704;52.524;17.580;2023-05-07T16:35:03;5.47;;;2.78;;
50739;SDS011;36704;52.524;17.580;2023-05-07T16:37:49;5.68;;;3.60;;
50739;SDS011;36704;52.524;17.580;2023-05-07T16:40:38;6.15;;;3.58;;
50739;SDS011;36704;52.524;17.580;2023-05-07T16:43:25;6.35;;;3.60;;